Flight Track Log - Related Links

Times and Time Zones

All times are in EDT time to prevent confusion due to time zone crossing. See the CTL17 flight status page for this flight to view local times or setup timezone preferences in your user account.

Time Position Orientation Groundspeed Altitude Reporting Facility
EDT Latitude Longitude Course Direction KTS MPH feet Rate Location/Type
Tue 04:53:00 PM 43.3619 -84.0057 160° South  Level Estimated
Tue 04:54:00 PM 43.3366 -83.9838 148° Southeast  Level FlightAware Approximate
Tue 04:55:00 PM 43.3080 -83.9718 160° South  Level Estimated
Tue 04:56:00 PM 43.2807 -83.9553 156° South  Level FlightAware Approximate
Tue 04:57:00 PM 43.2533 -83.9388 156° South  Level FlightAware Approximate
Tue 04:58:00 PM 43.2247 -83.9271 163° South  Level Estimated
Tue 04:59:00 PM 43.1965 -83.9134 161° South  Level FlightAware Approximate
Tue 05:00:00 PM 43.1683 -83.8997 161° South  Level FlightAware Approximate
Tue 05:01:00 PM 43.1401 -83.8861 161° South  Level FlightAware Approximate
Tue 05:01:01 PM 42.9469 -83.7969 161° South 176 203 5,000  Level Cleveland Center
Tue 05:02:00 PM 43.1115 -83.8746 160° South  Level Estimated
Tue 05:02:02 PM 42.9017 -83.7747 160° South 175 201 5,000  Level Cleveland Center
Tue 05:03:00 PM 43.0835 -83.8603 160° South  Level FlightAware Approximate
Tue 05:03:03 PM 42.8564 -83.7497 158° South 175 201 5,000  Level Cleveland Center
Tue 05:04:00 PM 43.0555 -83.8461 160° South  Level FlightAware Approximate
Tue 05:04:10 PM 42.8028 -83.7300 165° South 174 200 5,000  Level Cleveland Center
Tue 05:05:00 PM 43.0275 -83.8318 160° South  Level FlightAware Approximate
Tue 05:05:11 PM 42.7531 -83.7164 169° South 177 204 5,000  Level Cleveland Center
Tue 05:06:12 PM 42.7056 -83.7025 168° South 177 204 5,000  Level Cleveland Center
Tue 05:06:55 PM 42.6706 -83.6894 165° South 177 204 5,000  Level Cleveland Center
Tue 05:07:56 PM 42.6250 -83.6761 168° South 176 203 5,000  Level Cleveland Center
Tue 05:08:57 PM 42.5733 -83.6594 167° South 175 201 5,000 -236 Level Cleveland Center
Tue 05:10:03 PM 42.5194 -83.6456 169° South 186 214 4,500 -425 Descending Cleveland Center
Tue 05:11:04 PM 42.4700 -83.6289 166° South 186 214 4,100 -492 Descending Cleveland Center
Tue 05:12:05 PM 42.4139 -83.6150 170° South 193 222 3,500 -466 Descending Cleveland Center
Tue 05:13:00 PM 42.3703 -83.6072 172° South 183 211 3,200 -541 Descending Cleveland Center
Tue 05:14:07 PM 42.3142 -83.6019 176° South 182 209 2,400 -609 Descending Cleveland Center
Tue 05:15:08 PM 42.2644 -83.5939 173° South 163 188 1,900 -639 Descending Cleveland Center
Tue 05:16:09 PM 42.2444 -83.5592 128° Southeast 117 135 1,100 -787 Descending Cleveland Center
Tue 05:18:00 PM 42.2393 -83.5310 160° South  Level Estimated
Tue 05:25:00 PM 42.2393 -83.5310 160° South  Level Estimated

Login

Don't have an account? Register now (free) for customized features, flight alerts, and more!